Time;durP1;ratioP1;P1;durP2;ratioP2;P2;SDS_P1;SDS_P2;PMS_P1;PMS_P2;Temp;Humidity;BMP_temperature;BMP_pressure;BME280_temperature;BME280_humidity;BME280_pressure;Samples;Min_cycle;Max_cycle;Signal;HPM_P1;HPM_P2
2023/09/30 00:00:22;;;;;;;1.63;1.43;;;;;;;;;;6172195;28;20116;-85
2023/09/30 00:03:22;;;;;;;2.17;1.50;;;;;;;;;;6182945;28;20508;-85
2023/09/30 00:06:22;;;;;;;1.57;1.30;;;;;;;;;;6181080;28;20297;-84
2023/09/30 00:09:22;;;;;;;1.67;1.27;;;;;;;;;;6176751;28;20463;-86
2023/09/30 00:12:23;;;;;;;2.30;1.70;;;;;;;;;;6167578;28;20115;-83
2023/09/30 00:15:23;;;;;;;2.13;1.63;;;;;;;;;;6173600;28;20026;-82
2023/09/30 00:18:23;;;;;;;3.13;1.90;;;;;;;;;;6182369;28;20160;-83
2023/09/30 00:21:23;;;;;;;1.33;1.13;;;;;;;;;;6168545;28;20104;-83
2023/09/30 00:24:24;;;;;;;1.80;1.50;;;;;;;;;;6185003;28;20045;-84
2023/09/30 00:27:24;;;;;;;1.88;1.48;;;;;;;;;;6179836;28;20034;-83
2023/09/30 00:30:25;;;;;;;1.67;1.57;;;;;;;;;;6161059;28;20027;-83
2023/09/30 00:33:25;;;;;;;1.70;1.60;;;;;;;;;;6185340;28;20033;-83
2023/09/30 00:36:25;;;;;;;1.75;1.45;;;;;;;;;;6184082;28;20023;-84
2023/09/30 00:39:29;;;;;;;1.65;1.55;;;;;;;;;;6183771;28;20097;-83
2023/09/30 00:42:30;;;;;;;1.67;1.50;;;;;;;;;;6186134;28;20030;-79
2023/09/30 00:45:30;;;;;;;2.92;1.50;;;;;;;;;;6173194;28;20034;-79
2023/09/30 00:48:32;;;;;;;2.60;1.50;;;;;;;;;;6163888;28;20031;-79
2023/09/30 00:51:33;;;;;;;1.55;1.45;;;;;;;;;;6179260;28;20428;-79
2023/09/30 00:54:35;;;;;;;1.67;1.58;;;;;;;;;;6176874;28;20034;-79
2023/09/30 00:57:35;;;;;;;2.03;1.45;;;;;;;;;;6180610;28;20096;-79
2023/09/30 01:00:35;;;;;;;2.10;1.50;;;;;;;;;;6185615;28;20038;-78
2023/09/30 01:03:36;;;;;;;1.57;1.47;;;;;;;;;;6170320;28;20080;-79
2023/09/30 01:06:36;;;;;;;2.45;1.50;;;;;;;;;;6171133;28;20019;-79
2023/09/30 01:09:37;;;;;;;1.80;1.60;;;;;;;;;;6183667;28;20110;-79
2023/09/30 01:12:38;;;;;;;;;;;;;;;;;;6184341;28;20471;-79
2023/09/30 01:15:38;;;;;;;1.40;1.30;;;;;;;;;;6170939;28;19936;-79
2023/09/30 01:18:39;;;;;;;2.20;1.53;;;;;;;;;;6188144;28;20033;-79
2023/09/30 01:21:39;;;;;;;2.30;1.63;;;;;;;;;;6179563;28;20050;-79
2023/09/30 01:24:40;;;;;;;1.40;1.30;;;;;;;;;;6172907;28;20049;-79
2023/09/30 01:27:41;;;;;;;1.65;1.55;;;;;;;;;;6177440;28;20029;-79
2023/09/30 01:30:43;;;;;;;2.10;1.37;;;;;;;;;;6182818;28;20039;-80
2023/09/30 01:33:43;;;;;;;2.15;1.60;;;;;;;;;;6181392;28;20033;-80
2023/09/30 01:36:44;;;;;;;1.50;1.38;;;;;;;;;;6187792;28;20030;-79
2023/09/30 01:39:45;;;;;;;1.43;1.30;;;;;;;;;;6164309;28;20027;-79
2023/09/30 01:42:45;;;;;;;1.50;1.40;;;;;;;;;;6182681;28;20018;-79
2023/09/30 01:45:46;;;;;;;1.60;1.30;;;;;;;;;;6164991;28;20053;-79
2023/09/30 01:48:46;;;;;;;1.90;1.40;;;;;;;;;;6178812;28;20043;-79
2023/09/30 01:51:46;;;;;;;1.43;1.27;;;;;;;;;;6181223;28;20068;-79
2023/09/30 01:54:46;;;;;;;1.30;1.10;;;;;;;;;;6182791;28;20026;-83
2023/09/30 01:57:46;;;;;;;1.53;1.43;;;;;;;;;;6180942;28;20019;-83
2023/09/30 02:00:47;;;;;;;1.90;1.60;;;;;;;;;;6166899;28;20076;-84
2023/09/30 02:03:47;;;;;;;1.50;1.40;;;;;;;;;;6188619;28;20034;-84
2023/09/30 02:06:47;;;;;;;1.37;1.27;;;;;;;;;;6177026;28;20035;-84
2023/09/30 02:09:48;;;;;;;2.53;1.60;;;;;;;;;;6172130;28;20035;-84
2023/09/30 02:12:48;;;;;;;1.65;1.48;;;;;;;;;;6182637;28;20105;-84
2023/09/30 02:15:48;;;;;;;1.30;1.20;;;;;;;;;;6183041;28;20065;-84
2023/09/30 02:18:50;;;;;;;1.30;1.20;;;;;;;;;;6175514;28;20082;-84
2023/09/30 02:21:50;;;;;;;2.20;1.52;;;;;;;;;;6178056;28;20053;-84
2023/09/30 02:24:50;;;;;;;1.97;1.37;;;;;;;;;;6189483;28;20402;-84
2023/09/30 02:27:51;;;;;;;2.00;1.40;;;;;;;;;;6180041;28;20031;-84
2023/09/30 02:30:53;;;;;;;2.20;1.60;;;;;;;;;;6179307;28;20113;-84
2023/09/30 02:33:53;;;;;;;1.60;1.50;;;;;;;;;;6179698;28;20026;-84
2023/09/30 02:36:55;;;;;;;1.40;1.30;;;;;;;;;;6183881;28;20025;-84
2023/09/30 02:39:55;;;;;;;1.55;1.45;;;;;;;;;;6180289;28;20053;-85
2023/09/30 02:42:55;;;;;;;1.67;1.50;;;;;;;;;;6166274;28;20023;-84
2023/09/30 02:45:56;;;;;;;2.40;1.70;;;;;;;;;;6178174;28;20114;-84
2023/09/30 02:48:56;;;;;;;1.57;1.30;;;;;;;;;;6189195;28;20048;-86
2023/09/30 02:51:56;;;;;;;1.63;1.37;;;;;;;;;;6182966;28;20344;-86
2023/09/30 02:54:57;;;;;;;1.10;1.00;;;;;;;;;;6196875;28;20026;-86
2023/09/30 02:57:58;;;;;;;1.30;1.20;;;;;;;;;;6185253;28;20105;-84
2023/09/30 03:00:59;;;;;;;;;;;;;;;;;;6185974;28;20026;-86
2023/09/30 03:04:00;;;;;;;1.40;1.27;;;;;;;;;;6200913;28;20263;-85
2023/09/30 03:07:00;;;;;;;;;;;;;;;;;;6184347;28;20018;-86
2023/09/30 03:10:05;;;;;;;1.20;1.10;;;;;;;;;;6181143;28;20009;-85
2023/09/30 03:13:05;;;;;;;1.40;1.05;;;;;;;;;;6180596;28;20436;-85
2023/09/30 03:16:05;;;;;;;1.77;1.43;;;;;;;;;;6183787;28;21367;-85
2023/09/30 03:19:08;;;;;;;;;;;;;;;;;;6181768;28;20386;-87
2023/09/30 03:22:11;;;;;;;1.20;1.10;;;;;;;;;;6188055;28;20462;-86
2023/09/30 03:25:11;;;;;;;1.85;1.30;;;;;;;;;;6176737;28;20072;-85
2023/09/30 03:28:12;;;;;;;1.13;1.02;;;;;;;;;;6186825;28;20061;-86
2023/09/30 03:31:12;;;;;;;;;;;;;;;;;;6175619;28;20043;-85
2023/09/30 03:34:13;;;;;;;1.60;1.23;;;;;;;;;;6184805;28;19976;-86
2023/09/30 03:37:14;;;;;;;1.67;1.42;;;;;;;;;;6186262;28;20022;-86
2023/09/30 03:40:18;;;;;;;;;;;;;;;;;;6178829;28;20039;-86
2023/09/30 03:43:19;;;;;;;1.38;1.23;;;;;;;;;;6187180;28;19917;-84
2023/09/30 03:46:19;;;;;;;;;;;;;;;;;;6180031;28;20038;-85
2023/09/30 03:49:20;;;;;;;1.60;1.13;;;;;;;;;;6184837;28;19957;-86
2023/09/30 03:52:22;;;;;;;;;;;;;;;;;;6178142;28;20031;-83
2023/09/30 03:55:23;;;;;;;1.60;1.20;;;;;;;;;;6185980;28;19917;-84
2023/09/30 03:58:23;;;;;;;;;;;;;;;;;;6194907;28;20030;-83
2023/09/30 04:01:25;;;;;;;1.70;1.30;;;;;;;;;;6194177;28;19917;-84
2023/09/30 04:04:26;;;;;;;1.98;1.48;;;;;;;;;;6204524;28;20395;-82
2023/09/30 04:07:27;;;;;;;;;;;;;;;;;;6180960;28;20026;-83
2023/09/30 04:10:29;;;;;;;1.70;1.40;;;;;;;;;;6182515;28;19910;-84
2023/09/30 04:13:30;;;;;;;2.08;1.70;;;;;;;;;;6178798;28;20031;-80
2023/09/30 04:16:30;;;;;;;;;;;;;;;;;;6184749;28;20031;-79
2023/09/30 04:19:30;;;;;;;3.88;1.73;;;;;;;;;;6190434;28;20060;-79
2023/09/30 04:22:32;;;;;;;;;;;;;;;;;;6184951;28;20042;-79
2023/09/30 04:25:32;;;;;;;2.92;1.52;;;;;;;;;;6173277;28;19929;-79
2023/09/30 04:28:34;;;;;;;;;;;;;;;;;;6174483;28;20058;-79
2023/09/30 04:31:34;;;;;;;3.37;2.10;;;;;;;;;;6190926;28;19910;-79
2023/09/30 04:34:34;;;;;;;;;;;;;;;;;;6185176;28;20315;-79
2023/09/30 04:37:36;;;;;;;3.58;2.08;;;;;;;;;;6166433;28;19944;-79
2023/09/30 04:40:37;;;;;;;4.25;2.75;;;;;;;;;;6199229;28;20475;-79
2023/09/30 04:43:40;;;;;;;;;;;;;;;;;;6178997;28;20033;-79
2023/09/30 04:46:40;;;;;;;5.45;2.10;;;;;;;;;;6178154;28;19929;-79
2023/09/30 04:49:40;;;;;;;;;;;;;;;;;;6183207;28;20022;-79
2023/09/30 04:52:41;;;;;;;4.75;2.40;;;;;;;;;;6183397;28;19910;-79
2023/09/30 04:55:41;;;;;;;;;;;;;;;;;;6182677;28;20539;-79
2023/09/30 04:58:41;;;;;;;4.77;2.43;;;;;;;;;;6190217;28;19918;-79
2023/09/30 05:01:42;;;;;;;;;;;;;;;;;;6183033;28;20389;-79
2023/09/30 05:04:45;;;;;;;4.20;2.33;;;;;;;;;;6182594;28;19920;-80
2023/09/30 05:07:47;;;;;;;5.65;2.97;;;;;;;;;;6182574;28;20118;-79
2023/09/30 05:10:48;;;;;;;5.35;2.88;;;;;;;;;;6184922;28;20387;-79
2023/09/30 05:13:48;;;;;;;5.55;3.15;;;;;;;;;;6182871;28;20042;-79
2023/09/30 05:16:48;;;;;;;;;;;;;;;;;;6177709;28;20184;-80
2023/09/30 05:19:48;;;;;;;5.70;2.25;;;;;;;;;;6191050;28;20290;-80
2023/09/30 05:22:49;;;;;;;4.93;3.13;;;;;;;;;;6182055;28;20069;-80
2023/09/30 05:25:49;;;;;;;;;;;;;;;;;;6187866;28;20365;-80
2023/09/30 05:28:49;;;;;;;4.38;2.55;;;;;;;;;;6180582;28;19918;-79
2023/09/30 05:31:49;;;;;;;;;;;;;;;;;;6179942;28;20352;-80
2023/09/30 05:34:50;;;;;;;4.88;2.58;;;;;;;;;;6181478;28;20398;-80
2023/09/30 05:37:53;;;;;;;;;;;;;;;;;;6187416;28;20058;-80
2023/09/30 05:40:54;;;;;;;4.07;2.42;;;;;;;;;;6192607;28;19957;-74
2023/09/30 05:43:55;;;;;;;6.53;2.95;;;;;;;;;;6180741;28;20030;-74
2023/09/30 05:46:55;;;;;;;;;;;;;;;;;;6187836;28;20034;-74
2023/09/30 05:49:55;;;;;;;6.97;2.93;;;;;;;;;;6200201;28;19914;-74
2023/09/30 05:52:55;;;;;;;;;;;;;;;;;;6188088;28;20031;-74
2023/09/30 05:55:56;;;;;;;3.88;2.33;;;;;;;;;;6172306;28;19910;-74
2023/09/30 05:58:56;;;;;;;6.68;2.97;;;;;;;;;;6183741;28;20022;-75
2023/09/30 06:01:57;;;;;;;6.28;3.58;;;;;;;;;;6184874;28;20137;-74
2023/09/30 06:04:57;;;;;;;;;;;;;;;;;;6180028;28;20412;-74
2023/09/30 06:07:58;;;;;;;6.95;3.40;;;;;;;;;;6186454;28;19909;-74
2023/09/30 06:10:58;;;;;;;;;;;;;;;;;;6186801;28;20042;-75
2023/09/30 06:14:00;;;;;;;4.63;2.53;;;;;;;;;;6191718;28;19916;-74
2023/09/30 06:17:01;;;;;;;8.00;4.45;;;;;;;;;;6183853;28;20513;-75
2023/09/30 06:20:08;;;;;;;;;;;;;;;;;;6188789;28;20062;-75
2023/09/30 06:23:09;;;;;;;6.13;3.25;;;;;;;;;;6189986;28;19926;-74
2023/09/30 06:26:10;;;;;;;;;;;;;;;;;;6186099;28;20406;-74
2023/09/30 06:29:10;;;;;;;5.22;2.88;;;;;;;;;;6174567;28;19956;-74
2023/09/30 06:32:10;;;;;;;6.50;3.53;;;;;;;;;;6183708;28;20096;-74
2023/09/30 06:35:11;;;;;;;5.83;3.60;;;;;;;;;;6181669;28;20121;-74
2023/09/30 06:38:11;;;;;;;5.55;3.50;;;;;;;;;;5827876;27;10000161;-74
2023/09/30 06:41:18;;;;;;;7.20;3.83;;;;;;;;;;6181471;28;20475;-74
2023/09/30 06:44:18;;;;;;;8.30;3.95;;;;;;;;;;6180378;28;20034;-75
2023/09/30 06:47:18;;;;;;;;;;;;;;;;;;6180290;28;20038;-74
2023/09/30 06:50:18;;;;;;;6.50;3.13;;;;;;;;;;6176344;28;19918;-74
2023/09/30 06:53:19;;;;;;;5.87;3.30;;;;;;;;;;6189769;28;20513;-74
2023/09/30 06:56:19;;;;;;;;;;;;;;;;;;6177080;28;20286;-75
2023/09/30 06:59:19;;;;;;;5.57;3.08;;;;;;;;;;6171662;28;19914;-74
2023/09/30 07:02:19;;;;;;;;;;;;;;;;;;6187436;28;20382;-75
2023/09/30 07:05:19;;;;;;;4.93;2.80;;;;;;;;;;6176597;28;19917;-74
2023/09/30 07:08:23;;;;;;;7.00;3.43;;;;;;;;;;6178093;28;20066;-74
2023/09/30 07:11:27;;;;;;;6.38;3.35;;;;;;;;;;6186275;28;20311;-75
2023/09/30 07:14:27;;;;;;;6.88;3.95;;;;;;;;;;5840830;28;9999933;-74
2023/09/30 07:17:27;;;;;;;5.90;3.80;;;;;;;;;;6176601;28;20031;-74
2023/09/30 07:20:27;;;;;;;6.93;3.87;;;;;;;;;;6176535;28;20360;-74
2023/09/30 07:23:29;;;;;;;6.68;3.63;;;;;;;;;;6179855;28;20286;-74
2023/09/30 07:26:30;;;;;;;6.07;3.78;;;;;;;;;;6184939;28;20030;-73
2023/09/30 07:29:30;;;;;;;6.90;4.13;;;;;;;;;;6183091;28;20509;-74
2023/09/30 07:32:31;;;;;;;7.73;4.23;;;;;;;;;;6184454;28;20041;-74
2023/09/30 07:35:32;;;;;;;6.88;3.75;;;;;;;;;;6180501;28;20062;-74
2023/09/30 07:38:32;;;;;;;6.03;3.55;;;;;;;;;;6178158;28;20031;-74
2023/09/30 07:41:36;;;;;;;8.43;4.43;;;;;;;;;;6190659;28;20034;-75
2023/09/30 07:44:37;;;;;;;6.30;3.55;;;;;;;;;;6177315;28;20302;-72
2023/09/30 07:47:37;;;;;;;6.88;3.80;;;;;;;;;;6184002;28;20043;-72
2023/09/30 07:50:38;;;;;;;7.72;4.22;;;;;;;;;;6187738;28;20121;-72
2023/09/30 07:53:40;;;;;;;7.82;4.38;;;;;;;;;;6179010;28;20570;-73
2023/09/30 07:56:40;;;;;;;7.57;4.32;;;;;;;;;;6180881;28;20097;-73
2023/09/30 07:59:40;;;;;;;8.60;4.10;;;;;;;;;;6176287;28;20490;-73
2023/09/30 08:02:41;;;;;;;7.07;4.00;;;;;;;;;;6187417;28;20050;-73
2023/09/30 08:05:42;;;;;;;8.65;4.28;;;;;;;;;;6186218;28;20065;-73
2023/09/30 08:08:42;;;;;;;7.32;4.28;;;;;;;;;;6189997;28;20056;-73
2023/09/30 08:11:43;;;;;;;7.27;4.10;;;;;;;;;;6180433;28;20041;-77
2023/09/30 08:14:46;;;;;;;7.07;4.00;;;;;;;;;;6181677;28;20030;-77
2023/09/30 08:17:46;;;;;;;8.10;4.00;;;;;;;;;;6183733;28;20034;-77
2023/09/30 08:20:46;;;;;;;7.90;4.07;;;;;;;;;;6176240;28;20050;-77
2023/09/30 08:23:47;;;;;;;8.32;4.10;;;;;;;;;;6190503;28;20633;-77
2023/09/30 08:26:47;;;;;;;7.50;4.17;;;;;;;;;;6170328;28;20026;-78
2023/09/30 08:29:47;;;;;;;6.17;3.80;;;;;;;;;;6177937;28;20100;-78
2023/09/30 08:32:47;;;;;;;6.93;3.83;;;;;;;;;;6183885;28;20022;-77
2023/09/30 08:35:47;;;;;;;5.97;3.53;;;;;;;;;;6182930;28;20364;-78
2023/09/30 08:38:48;;;;;;;6.73;4.00;;;;;;;;;;6186719;28;20269;-78
2023/09/30 08:41:48;;;;;;;5.50;3.40;;;;;;;;;;6209155;28;20057;-78
2023/09/30 08:44:49;;;;;;;6.88;3.70;;;;;;;;;;6189350;28;20639;-78
2023/09/30 08:47:50;;;;;;;6.95;3.78;;;;;;;;;;6180435;28;20486;-78
2023/09/30 08:50:51;;;;;;;9.00;4.03;;;;;;;;;;6179784;28;20472;-78
2023/09/30 08:53:52;;;;;;;5.80;3.55;;;;;;;;;;6185228;28;20034;-79
2023/09/30 08:56:52;;;;;;;6.47;3.78;;;;;;;;;;6179192;28;20030;-78
2023/09/30 08:59:53;;;;;;;8.07;3.83;;;;;;;;;;6186178;28;20030;-78
2023/09/30 09:02:54;;;;;;;5.93;3.92;;;;;;;;;;6169179;28;20030;-77
2023/09/30 09:05:59;;;;;;;7.50;4.95;;;;;;;;;;6182172;28;20037;-77
2023/09/30 09:09:19;;;;;;;8.63;4.15;;;;;;;;;;6194188;28;20056;-78
2023/09/30 09:12:20;;;;;;;6.15;3.67;;;;;;;;;;6183571;28;20027;-78
2023/09/30 09:15:24;;;;;;;7.00;3.78;;;;;;;;;;5832142;27;10000707;-78
2023/09/30 09:18:33;;;;;;;6.00;3.60;;;;;;;;;;6177418;28;20034;-77
2023/09/30 09:21:34;;;;;;;8.77;4.00;;;;;;;;;;6178257;28;20055;-78
2023/09/30 09:24:35;;;;;;;5.27;3.13;;;;;;;;;;6187606;28;20088;-78
2023/09/30 09:27:36;;;;;;;5.60;3.55;;;;;;;;;;6182565;28;20540;-78
2023/09/30 09:30:38;;;;;;;5.40;3.15;;;;;;;;;;6186574;28;20061;-78
2023/09/30 09:33:38;;;;;;;6.47;3.40;;;;;;;;;;5836795;28;9999682;-78
2023/09/30 09:36:40;;;;;;;6.30;3.37;;;;;;;;;;6181114;28;20026;-78
2023/09/30 09:39:40;;;;;;;5.47;3.00;;;;;;;;;;6185114;28;20051;-77
2023/09/30 09:42:40;;;;;;;5.80;3.55;;;;;;;;;;6174070;28;20433;-78
2023/09/30 09:45:41;;;;;;;6.15;3.83;;;;;;;;;;6179960;28;20113;-78
2023/09/30 09:48:41;;;;;;;6.10;3.42;;;;;;;;;;6173762;28;20031;-78
2023/09/30 09:51:44;;;;;;;6.95;3.42;;;;;;;;;;6166250;28;20113;-78
2023/09/30 09:54:45;;;;;;;5.82;3.30;;;;;;;;;;6186554;28;20470;-79
2023/09/30 09:57:45;;;;;;;7.07;3.38;;;;;;;;;;6183960;28;20029;-78
2023/09/30 10:00:46;;;;;;;5.10;3.15;;;;;;;;;;6180348;28;20391;-79
2023/09/30 10:03:47;;;;;;;6.53;3.13;;;;;;;;;;6184171;28;20391;-76
2023/09/30 10:06:51;;;;;;;5.47;3.08;;;;;;;;;;6180004;28;20029;-77
2023/09/30 10:09:52;;;;;;;7.28;4.22;;;;;;;;;;6189722;28;20035;-77
2023/09/30 10:12:52;;;;;;;6.22;3.63;;;;;;;;;;6194174;28;20084;-77
2023/09/30 10:15:54;;;;;;;6.03;3.37;;;;;;;;;;6176539;28;20423;-76
2023/09/30 10:19:14;;;;;;;5.68;3.33;;;;;;;;;;6176466;28;20281;-76
2023/09/30 10:22:27;;;;;;;5.35;3.30;;;;;;;;;;6172421;28;20483;-76
2023/09/30 10:25:38;;;;;;;6.32;3.63;;;;;;;;;;6185653;28;20072;-75
2023/09/30 10:28:46;;;;;;;7.18;3.33;;;;;;;;;;6179078;28;20049;-75
2023/09/30 10:31:50;;;;;;;6.82;3.55;;;;;;;;;;6185755;28;20472;-75
2023/09/30 10:34:52;;;;;;;4.88;3.28;;;;;;;;;;6173867;28;20030;-75
2023/09/30 10:38:12;;;;;;;5.28;3.22;;;;;;;;;;6174405;28;20026;-75
2023/09/30 10:41:32;;;;;;;4.82;3.10;;;;;;;;;;6177907;28;20088;-74
2023/09/30 10:44:33;;;;;;;5.25;3.20;;;;;;;;;;6181604;28;20053;-75
2023/09/30 10:47:34;;;;;;;6.45;3.15;;;;;;;;;;6176339;28;20023;-76
2023/09/30 10:50:50;;;;;;;5.47;3.33;;;;;;;;;;6177901;28;20027;-76
2023/09/30 10:53:52;;;;;;;5.60;2.97;;;;;;;;;;6167042;28;20114;-76
2023/09/30 10:56:55;;;;;;;5.13;2.90;;;;;;;;;;6174658;28;20113;-75
2023/09/30 11:00:11;;;;;;;6.82;3.05;;;;;;;;;;6181463;28;20363;-75
2023/09/30 11:03:12;;;;;;;5.55;2.85;;;;;;;;;;6189663;28;20542;-76
2023/09/30 11:06:13;;;;;;;7.60;3.97;;;;;;;;;;6197407;28;20029;-75
2023/09/30 11:09:17;;;;;;;5.95;3.80;;;;;;;;;;6212011;28;20171;-75
2023/09/30 11:12:18;;;;;;;4.97;3.20;;;;;;;;;;6200362;28;20091;-77
2023/09/30 11:15:18;;;;;;;6.65;3.63;;;;;;;;;;6206721;28;20030;-77
2023/09/30 11:18:18;;;;;;;4.73;2.93;;;;;;;;;;6196832;28;20356;-77
2023/09/30 11:21:18;;;;;;;5.70;3.23;;;;;;;;;;6190307;28;20046;-77
2023/09/30 11:24:19;;;;;;;5.43;2.90;;;;;;;;;;6220317;28;20061;-77
2023/09/30 11:27:24;;;;;;;5.53;3.30;;;;;;;;;;6211294;28;20270;-77
2023/09/30 11:30:25;;;;;;;6.90;3.30;;;;;;;;;;6206989;28;20033;-77
2023/09/30 11:33:26;;;;;;;4.90;3.13;;;;;;;;;;5874213;28;10000256;-78
2023/09/30 11:36:26;;;;;;;4.35;2.75;;;;;;;;;;6197544;28;20471;-77
2023/09/30 11:39:28;;;;;;;4.77;2.70;;;;;;;;;;6196943;28;20036;-78
2023/09/30 11:42:28;;;;;;;6.55;3.28;;;;;;;;;;6223784;28;20061;-77
2023/09/30 11:45:28;;;;;;;5.63;3.23;;;;;;;;;;6215324;28;20423;-78
2023/09/30 11:48:28;;;;;;;6.30;2.83;;;;;;;;;;6207137;28;20696;-77
2023/09/30 11:51:29;;;;;;;5.07;2.83;;;;;;;;;;6213940;28;20309;-77
2023/09/30 11:54:46;;;;;;;5.78;3.28;;;;;;;;;;6222052;28;20037;-78
2023/09/30 11:57:47;;;;;;;5.88;3.55;;;;;;;;;;6222996;28;20378;-77
2023/09/30 12:00:50;;;;;;;4.70;2.83;;;;;;;;;;6199457;28;20031;-77
2023/09/30 12:03:51;;;;;;;5.55;3.47;;;;;;;;;;6214906;28;20030;-78
2023/09/30 12:06:52;;;;;;;7.22;3.58;;;;;;;;;;6207320;28;20453;-78
2023/09/30 12:09:53;;;;;;;7.35;3.40;;;;;;;;;;6191006;28;20029;-77
2023/09/30 12:12:53;;;;;;;5.95;3.33;;;;;;;;;;6174309;28;20030;-77
2023/09/30 12:15:53;;;;;;;5.17;3.27;;;;;;;;;;6189420;28;20103;-77
2023/09/30 12:18:53;;;;;;;5.50;3.40;;;;;;;;;;6191921;28;20075;-78
2023/09/30 12:21:53;;;;;;;6.40;3.63;;;;;;;;;;6219180;28;20050;-78
2023/09/30 12:24:54;;;;;;;4.63;2.77;;;;;;;;;;6199683;28;20105;-75
2023/09/30 12:27:55;;;;;;;5.23;3.40;;;;;;;;;;6196016;28;20380;-75
2023/09/30 12:30:55;;;;;;;6.78;3.83;;;;;;;;;;6208998;28;20054;-75
2023/09/30 12:33:56;;;;;;;6.87;3.43;;;;;;;;;;6205679;28;20455;-75
2023/09/30 12:36:56;;;;;;;6.95;3.40;;;;;;;;;;6195776;28;20034;-75
2023/09/30 12:39:57;;;;;;;6.85;3.72;;;;;;;;;;6202250;28;20018;-75
2023/09/30 12:42:57;;;;;;;5.72;3.42;;;;;;;;;;6221743;28;20026;-75
2023/09/30 12:45:59;;;;;;;7.05;3.63;;;;;;;;;;6175886;28;20019;-75
2023/09/30 12:48:59;;;;;;;5.65;3.00;;;;;;;;;;6172831;28;20072;-75
2023/09/30 12:52:01;;;;;;;4.77;3.07;;;;;;;;;;6204459;28;20047;-76
2023/09/30 12:55:01;;;;;;;6.20;3.13;;;;;;;;;;6216569;28;20026;-76
2023/09/30 12:58:01;;;;;;;5.03;3.05;;;;;;;;;;6200653;28;20457;-75
2023/09/30 13:01:02;;;;;;;5.65;3.40;;;;;;;;;;6219423;28;20037;-76
2023/09/30 13:04:02;;;;;;;4.50;2.92;;;;;;;;;;6201581;28;20034;-76
2023/09/30 13:07:03;;;;;;;3.97;2.70;;;;;;;;;;6195847;28;20026;-76
2023/09/30 13:10:05;;;;;;;4.07;2.60;;;;;;;;;;6192983;28;20076;-76
2023/09/30 13:13:05;;;;;;;5.55;2.78;;;;;;;;;;6189394;28;20027;-76
2023/09/30 13:16:05;;;;;;;4.37;2.70;;;;;;;;;;6196004;28;20435;-76
2023/09/30 13:19:05;;;;;;;4.73;2.70;;;;;;;;;;6197039;28;20026;-76
2023/09/30 13:22:06;;;;;;;5.00;2.93;;;;;;;;;;6216742;28;20379;-76
2023/09/30 13:25:12;;;;;;;5.10;2.70;;;;;;;;;;6218202;28;20022;-76
2023/09/30 13:28:13;;;;;;;3.72;2.65;;;;;;;;;;6198535;28;20109;-75
2023/09/30 13:31:13;;;;;;;5.40;2.90;;;;;;;;;;6220360;28;20382;-75
2023/09/30 13:34:14;;;;;;;4.18;2.60;;;;;;;;;;6202706;28;20030;-77
2023/09/30 13:37:14;;;;;;;4.97;2.55;;;;;;;;;;6195477;28;20056;-78
2023/09/30 13:40:14;;;;;;;7.73;3.23;;;;;;;;;;6185662;28;20026;-78
2023/09/30 13:43:14;;;;;;;5.03;2.87;;;;;;;;;;6214116;28;20108;-78
2023/09/30 13:46:15;;;;;;;4.27;2.73;;;;;;;;;;6220293;28;20484;-78
2023/09/30 13:49:17;;;;;;;4.43;2.92;;;;;;;;;;6198416;28;20026;-78
2023/09/30 13:52:17;;;;;;;4.45;2.78;;;;;;;;;;6216233;28;20026;-78
2023/09/30 13:55:21;;;;;;;5.22;2.65;;;;;;;;;;6219770;28;20102;-78
2023/09/30 13:58:21;;;;;;;6.18;2.53;;;;;;;;;;6185417;28;20467;-77
2023/09/30 14:01:22;;;;;;;5.70;2.70;;;;;;;;;;6208256;28;20169;-78
2023/09/30 14:04:22;;;;;;;4.45;2.65;;;;;;;;;;6174242;28;20031;-78
2023/09/30 14:07:23;;;;;;;5.73;2.97;;;;;;;;;;6198189;28;20363;-78
2023/09/30 14:10:24;;;;;;;4.55;2.75;;;;;;;;;;6217011;28;20034;-78
2023/09/30 14:13:24;;;;;;;5.13;2.70;;;;;;;;;;6215919;28;20025;-77
2023/09/30 14:16:24;;;;;;;5.23;3.03;;;;;;;;;;6178302;28;20062;-77
2023/09/30 14:19:24;;;;;;;4.90;2.67;;;;;;;;;;6204190;28;20134;-77
2023/09/30 14:22:25;;;;;;;6.73;2.73;;;;;;;;;;6206052;28;20424;-77
2023/09/30 14:25:26;;;;;;;4.15;2.92;;;;;;;;;;6216494;28;20034;-78
2023/09/30 14:28:26;;;;;;;6.18;3.20;;;;;;;;;;6201225;28;20044;-77
2023/09/30 14:31:27;;;;;;;5.23;3.30;;;;;;;;;;6214276;28;20459;-77
2023/09/30 14:34:27;;;;;;;4.53;3.03;;;;;;;;;;6197863;28;20746;-77
2023/09/30 14:37:29;;;;;;;4.57;2.88;;;;;;;;;;6193223;28;20273;-77
2023/09/30 14:40:29;;;;;;;4.80;2.92;;;;;;;;;;6200219;28;20060;-78
2023/09/30 14:43:29;;;;;;;6.77;3.63;;;;;;;;;;6213766;28;20052;-77
2023/09/30 14:46:29;;;;;;;5.23;2.93;;;;;;;;;;6171388;28;20019;-77
2023/09/30 14:49:33;;;;;;;5.37;2.73;;;;;;;;;;6170762;28;20035;-77
2023/09/30 14:52:33;;;;;;;4.75;2.67;;;;;;;;;;6175863;28;20145;-77
2023/09/30 14:55:34;;;;;;;6.15;2.97;;;;;;;;;;6188354;28;20022;-78
2023/09/30 14:58:34;;;;;;;6.28;3.22;;;;;;;;;;6190288;28;20057;-77
2023/09/30 15:01:34;;;;;;;4.97;2.73;;;;;;;;;;6203561;28;20026;-77
2023/09/30 15:04:34;;;;;;;6.23;3.20;;;;;;;;;;6219062;28;20045;-77
2023/09/30 15:07:37;;;;;;;4.70;2.80;;;;;;;;;;6212296;28;20261;-77
2023/09/30 15:10:37;;;;;;;5.63;2.97;;;;;;;;;;6195669;28;20014;-77
2023/09/30 15:13:37;;;;;;;5.18;2.90;;;;;;;;;;6202871;28;20103;-77
2023/09/30 15:16:38;;;;;;;5.27;2.77;;;;;;;;;;6194760;28;20368;-77
2023/09/30 15:19:38;;;;;;;4.60;2.72;;;;;;;;;;6193959;28;20050;-77
2023/09/30 15:22:39;;;;;;;4.60;2.55;;;;;;;;;;6216761;28;20116;-77
2023/09/30 15:25:43;;;;;;;5.00;3.45;;;;;;;;;;6202461;28;21491;-77
2023/09/30 15:28:44;;;;;;;5.45;3.35;;;;;;;;;;6218628;28;20479;-77
2023/09/30 15:31:44;;;;;;;5.32;3.13;;;;;;;;;;6205217;28;20077;-76
2023/09/30 15:34:45;;;;;;;3.57;2.37;;;;;;;;;;6193021;28;20036;-77
2023/09/30 15:37:45;;;;;;;4.47;2.57;;;;;;;;;;6204217;28;20305;-76
2023/09/30 15:40:52;;;;;;;4.00;2.07;;;;;;;;;;6169731;28;20037;-77
2023/09/30 15:43:52;;;;;;;3.67;2.05;;;;;;;;;;6205119;28;20269;-77
2023/09/30 15:46:53;;;;;;;4.33;2.17;;;;;;;;;;6201137;28;20034;-77
2023/09/30 15:49:53;;;;;;;3.17;1.90;;;;;;;;;;6172592;28;20266;-77
2023/09/30 15:52:53;;;;;;;4.03;2.03;;;;;;;;;;6200317;28;20368;-75
2023/09/30 15:55:53;;;;;;;3.47;1.70;;;;;;;;;;6198464;28;20026;-75
2023/09/30 15:58:54;;;;;;;3.42;1.88;;;;;;;;;;6213486;28;20034;-74
2023/09/30 16:01:54;;;;;;;2.60;1.50;;;;;;;;;;6203984;28;20030;-74
2023/09/30 16:04:54;;;;;;;2.88;1.80;;;;;;;;;;6219022;28;20030;-74
2023/09/30 16:07:54;;;;;;;2.80;1.67;;;;;;;;;;6198743;28;20105;-76
2023/09/30 16:10:55;;;;;;;2.30;1.67;;;;;;;;;;6185168;28;20031;-76
2023/09/30 16:13:55;;;;;;;3.73;1.87;;;;;;;;;;6209319;28;20026;-77
2023/09/30 16:16:56;;;;;;;3.05;1.88;;;;;;;;;;6192106;28;20109;-75
2023/09/30 16:19:56;;;;;;;3.17;1.77;;;;;;;;;;6189282;28;20472;-72
2023/09/30 16:22:56;;;;;;;3.40;1.60;;;;;;;;;;6187640;28;20034;-72
2023/09/30 16:25:56;;;;;;;4.47;1.63;;;;;;;;;;6195368;28;20030;-73
2023/09/30 16:28:58;;;;;;;3.77;1.70;;;;;;;;;;6188490;28;20023;-75
2023/09/30 16:31:58;;;;;;;2.92;1.80;;;;;;;;;;6178777;28;20079;-74
2023/09/30 16:34:58;;;;;;;3.50;1.77;;;;;;;;;;6179109;28;20493;-74
2023/09/30 16:37:59;;;;;;;2.63;1.83;;;;;;;;;;6175102;28;20773;-74
2023/09/30 16:40:59;;;;;;;2.00;1.50;;;;;;;;;;6189125;28;20038;-74
2023/09/30 16:43:59;;;;;;;3.85;1.85;;;;;;;;;;6201008;28;20064;-74
2023/09/30 16:46:59;;;;;;;2.77;1.63;;;;;;;;;;6188185;28;20058;-75
2023/09/30 16:50:00;;;;;;;2.70;1.60;;;;;;;;;;6191157;28;20030;-73
2023/09/30 16:53:00;;;;;;;2.10;1.48;;;;;;;;;;6174989;28;20027;-74
2023/09/30 16:56:03;;;;;;;2.53;1.27;;;;;;;;;;6195187;28;20034;-73
2023/09/30 16:59:04;;;;;;;2.03;1.33;;;;;;;;;;6196811;28;20022;-73
2023/09/30 17:02:06;;;;;;;2.13;1.25;;;;;;;;;;6199573;28;20478;-72
2023/09/30 17:05:06;;;;;;;3.25;1.45;;;;;;;;;;6214683;28;20378;-72
2023/09/30 17:08:07;;;;;;;3.53;1.38;;;;;;;;;;6199885;28;20027;-72
2023/09/30 17:11:07;;;;;;;1.53;1.10;;;;;;;;;;6199783;28;20035;-74
2023/09/30 17:14:08;;;;;;;2.03;1.00;;;;;;;;;;6191836;28;20029;-74
2023/09/30 17:17:08;;;;;;;1.47;0.90;;;;;;;;;;6196748;28;20455;-75
2023/09/30 17:20:09;;;;;;;0.97;0.70;;;;;;;;;;6195625;28;20050;-74
2023/09/30 17:23:10;;;;;;;1.85;0.70;;;;;;;;;;6175932;28;20101;-74
2023/09/30 17:26:10;;;;;;;1.38;0.85;;;;;;;;;;6212466;28;20040;-74
2023/09/30 17:29:10;;;;;;;1.73;1.00;;;;;;;;;;6205384;28;20030;-74
2023/09/30 17:32:13;;;;;;;2.33;1.40;;;;;;;;;;6187348;28;20264;-74
2023/09/30 17:35:13;;;;;;;2.50;1.40;;;;;;;;;;6207287;28;20038;-75
2023/09/30 17:38:13;;;;;;;1.57;1.10;;;;;;;;;;6183654;28;20034;-74
2023/09/30 17:41:14;;;;;;;1.17;0.80;;;;;;;;;;6190063;28;20277;-74
2023/09/30 17:44:14;;;;;;;1.20;0.60;;;;;;;;;;6200617;28;20280;-74
2023/09/30 17:47:15;;;;;;;1.50;0.90;;;;;;;;;;6190238;28;20446;-74
2023/09/30 17:50:15;;;;;;;1.30;0.80;;;;;;;;;;6189180;28;20030;-74
2023/09/30 17:53:15;;;;;;;1.13;0.60;;;;;;;;;;6192828;28;20712;-74
2023/09/30 17:56:16;;;;;;;1.10;0.80;;;;;;;;;;6212333;28;20163;-74
2023/09/30 17:59:16;;;;;;;1.17;0.80;;;;;;;;;;6204798;28;20066;-74
2023/09/30 18:02:17;;;;;;;2.60;0.90;;;;;;;;;;6180326;28;20445;-73
2023/09/30 18:05:17;;;;;;;1.13;0.73;;;;;;;;;;6184488;28;20088;-74
2023/09/30 18:08:18;;;;;;;1.10;0.90;;;;;;;;;;6176604;28;20121;-74
2023/09/30 18:11:19;;;;;;;1.17;0.80;;;;;;;;;;6184099;28;20535;-74
2023/09/30 18:14:21;;;;;;;1.93;0.80;;;;;;;;;;6188613;28;20029;-74
2023/09/30 18:17:21;;;;;;;2.92;0.80;;;;;;;;;;6186469;28;20041;-74